Time;durP1;ratioP1;P1;durP2;ratioP2;P2;SDS_P1;SDS_P2;PMS_P1;PMS_P2;Temp;Humidity;BMP_temperature;BMP_pressure;BME280_temperature;BME280_humidity;BME280_pressure;Samples;Min_cycle;Max_cycle;Signal;HPM_P1;HPM_P2
2021/06/28 00:02:24;;;;;;;;;7.00;5.25;;;;;25.24;52.87;100988.38;5018333;28;51048;-43
2021/06/28 00:04:49;;;;;;;;;5.00;5.00;;;;;25.24;53.06;100982.00;5018959;28;50995;-45
2021/06/28 00:07:14;;;;;;;;;5.75;5.50;;;;;25.23;52.89;100981.16;5015881;28;51152;-43
2021/06/28 00:09:40;;;;;;;;;3.50;3.25;;;;;25.24;52.93;100973.69;5018435;27;51105;-47
2021/06/28 00:12:06;;;;;;;;;4.50;4.50;;;;;25.24;52.69;100971.75;5016232;28;51009;-44
2021/06/28 00:14:31;;;;;;;;;4.00;3.00;;;;;25.24;52.68;100968.16;5017807;28;51074;-43
2021/06/28 00:16:56;;;;;;;;;4.00;4.00;;;;;25.23;52.63;100974.78;5015943;28;51442;-43
2021/06/28 00:19:22;;;;;;;;;5.50;4.00;;;;;25.24;52.86;100974.53;5015688;28;51049;-43
2021/06/28 00:21:47;;;;;;;;;5.00;4.25;;;;;25.24;52.71;100976.47;5008192;28;51056;-44
2021/06/28 00:24:12;;;;;;;;;5.75;5.75;;;;;25.23;52.96;100967.31;5031096;28;51019;-45
2021/06/28 00:26:38;;;;;;;;;7.25;5.50;;;;;25.23;52.92;100966.47;5018920;27;51153;-43
2021/06/28 00:29:03;;;;;;;;;5.00;5.00;;;;;25.24;52.91;100960.66;5024087;27;51432;-46
2021/06/28 00:31:29;;;;;;;;;5.00;4.00;;;;;25.24;52.73;100955.13;5016980;27;51909;-44
2021/06/28 00:33:56;;;;;;;;;2.75;2.75;;;;;25.24;52.85;100949.56;5015479;28;51083;-45
2021/06/28 00:36:21;;;;;;;;;4.75;4.75;;;;;25.24;52.98;100949.56;5015602;28;50933;-43
2021/06/28 00:38:47;;;;;;;;;3.75;3.75;;;;;25.23;52.92;100936.81;5014868;28;51126;-45
2021/06/28 00:41:12;;;;;;;;;7.75;5.00;;;;;25.23;52.89;100925.72;5016883;28;50928;-45
2021/06/28 00:43:37;;;;;;;;;5.75;5.75;;;;;25.24;52.75;100916.31;5018606;28;50992;-44
2021/06/28 00:46:03;;;;;;;;;3.25;3.25;;;;;25.23;52.84;100913.78;5016059;28;51181;-47
2021/06/28 00:48:28;;;;;;;;;6.00;6.00;;;;;25.24;52.91;100909.94;5014465;28;51137;-43
2021/06/28 00:50:54;;;;;;;;;3.00;3.00;;;;;25.24;53.03;100910.75;5013598;27;51574;-43
2021/06/28 00:53:23;;;;;;;;;4.00;4.00;;;;;25.23;53.09;100906.31;5015544;28;50992;-45
2021/06/28 00:55:50;;;;;;;;;3.25;3.25;;;;;25.23;52.83;100911.84;5016417;28;50957;-43
2021/06/28 00:58:16;;;;;;;;;3.00;3.00;;;;;25.22;53.08;100915.72;5019730;28;51132;-46
2021/06/28 01:00:42;;;;;;;;;4.00;3.75;;;;;25.22;53.10;100901.88;5016854;28;51921;-44
2021/06/28 01:03:08;;;;;;;;;4.25;4.25;;;;;25.23;53.14;100895.22;5015268;28;51104;-44
2021/06/28 01:05:36;;;;;;;;;4.25;4.25;;;;;25.23;52.96;100891.63;5041136;28;51068;-44
2021/06/28 01:08:04;;;;;;;;;4.00;4.00;;;;;25.22;52.97;100890.78;5027189;28;50616;-43
2021/06/28 01:10:29;;;;;;;;;4.00;3.75;;;;;25.22;52.82;100890.78;5015708;27;54095;-46
2021/06/28 01:12:55;;;;;;;;;3.00;3.00;;;;;25.23;52.95;100880.53;5013631;28;51002;-43
2021/06/28 01:15:22;;;;;;;;;3.00;3.00;;;;;25.23;52.84;100873.06;5018623;27;50944;-43
2021/06/28 01:17:49;;;;;;;;;5.50;4.25;;;;;25.23;52.93;100863.91;5014641;28;51078;-43
2021/06/28 01:20:20;;;;;;;;;3.00;3.00;;;;;25.22;52.77;100856.63;5016541;28;51791;-45
2021/06/28 01:22:48;;;;;;;;;4.50;3.50;;;;;25.22;53.10;100835.34;5016623;28;51372;-43
2021/06/28 01:25:18;;;;;;;;;3.75;3.75;;;;;25.21;52.83;100844.72;5032061;27;51085;-43
2021/06/28 01:27:44;;;;;;;;;3.00;2.75;;;;;25.21;52.88;100850.25;5046838;27;51234;-45
2021/06/28 01:30:16;;;;;;;;;4.00;3.75;;;;;25.22;52.62;100879.69;5017312;28;51664;-44
2021/06/28 01:32:44;;;;;;;;;3.50;3.50;;;;;25.21;52.86;100889.06;5016237;27;51516;-44
2021/06/28 01:35:10;;;;;;;;;5.50;4.00;;;;;25.21;53.00;100886.28;5015076;28;50823;-43
2021/06/28 01:37:36;;;;;;;;;3.00;3.00;;;;;25.21;52.75;100902.09;5014917;28;52279;-43
2021/06/28 01:40:06;;;;;;;;;3.50;3.00;;;;;25.20;53.03;100909.56;5030262;28;52007;-44
2021/06/28 01:42:32;;;;;;;;;2.50;2.50;;;;;25.20;53.09;100914.28;5014441;27;51164;-45
2021/06/28 01:44:58;;;;;;;;;3.75;3.75;;;;;25.20;53.08;100917.88;5016968;28;50472;-43
2021/06/28 01:47:24;;;;;;;;;4.00;3.75;;;;;25.22;52.95;100909.31;5019303;28;51205;-42
2021/06/28 01:49:50;;;;;;;;;3.00;3.00;;;;;25.19;52.99;100916.22;5017370;28;51951;-45
2021/06/28 01:52:15;;;;;;;;;3.75;3.75;;;;;25.20;53.04;100923.44;5013116;28;51082;-45
2021/06/28 01:54:41;;;;;;;;;3.75;3.75;;;;;25.20;52.96;100915.13;5014532;28;51103;-43
2021/06/28 01:57:07;;;;;;;;;4.50;4.25;;;;;25.20;52.80;100909.56;5014220;28;51383;-43
2021/06/28 01:59:35;;;;;;;;;4.25;4.25;;;;;25.20;53.01;100892.94;5015323;28;53794;-44
2021/06/28 02:02:03;;;;;;;;;4.50;4.50;;;;;25.19;52.96;100907.06;5016831;28;51214;-43
2021/06/28 02:04:29;;;;;;;;;2.25;2.25;;;;;25.19;52.92;100913.44;5015884;27;51136;-43
2021/06/28 02:06:55;;;;;;;;;3.25;1.75;;;;;25.18;53.07;100922.84;5014641;28;50947;-45
2021/06/28 02:09:22;;;;;;;;;5.75;4.25;;;;;25.17;52.61;100921.16;5014140;28;51981;-43
2021/06/28 02:11:49;;;;;;;;;2.50;2.50;;;;;25.19;52.59;100929.22;5029667;28;51106;-43
2021/06/28 02:14:15;;;;;;;;;3.25;1.75;;;;;25.17;53.20;100932.25;5016646;28;51060;-45
2021/06/28 02:16:44;;;;;;;;;3.00;3.00;;;;;25.16;52.75;100916.72;5035722;28;51606;-44
2021/06/28 02:19:10;;;;;;;;;3.75;3.00;;;;;25.17;52.53;100915.63;5017242;28;51011;-47
2021/06/28 02:21:36;;;;;;;;;3.00;2.00;;;;;25.17;52.74;100898.16;5014453;28;50982;-44
2021/06/28 02:24:01;;;;;;;;;3.00;1.50;;;;;25.16;52.55;100897.31;5023143;28;50890;-43
2021/06/28 02:26:26;;;;;;;;;2.00;2.00;;;;;25.16;52.45;100904.78;5047310;28;50625;-43
2021/06/28 02:28:52;;;;;;;;;2.75;2.75;;;;;25.16;52.40;100902.03;5051198;27;51030;-43
2021/06/28 02:31:20;;;;;;;;;3.00;3.00;;;;;25.15;52.23;100895.63;5014346;28;51141;-44
2021/06/28 02:33:48;;;;;;;;;2.00;2.00;;;;;25.14;52.32;100879.28;5018487;28;51208;-44
2021/06/28 02:36:14;;;;;;;;;1.25;1.25;;;;;25.14;52.29;100882.03;5018873;28;51061;-47
2021/06/28 02:38:40;;;;;;;;;1.25;1.25;;;;;25.14;52.24;100876.50;5014072;28;51762;-47
2021/06/28 02:41:07;;;;;;;;;2.00;2.00;;;;;25.14;52.12;100885.66;5018776;28;51173;-45
2021/06/28 02:43:32;;;;;;;;;2.00;2.00;;;;;25.14;52.10;100907.00;5015919;28;51097;-45
2021/06/28 02:45:58;;;;;;;;;1.75;1.75;;;;;25.13;52.04;100925.56;5014520;28;50916;-43
2021/06/28 02:48:24;;;;;;;;;1.00;1.00;;;;;25.13;52.04;100924.72;5016546;28;51915;-43
2021/06/28 02:50:50;;;;;;;;;1.00;1.00;;;;;25.12;52.00;100928.56;5016557;27;51184;-43
2021/06/28 02:53:16;;;;;;;;;1.00;0.00;;;;;25.12;52.02;100934.97;5014083;28;51137;-45
2021/06/28 02:55:43;;;;;;;;;3.00;2.00;;;;;25.13;51.90;100952.44;5011870;28;51065;-44
2021/06/28 02:58:08;;;;;;;;;0.50;0.50;;;;;25.12;51.60;100939.66;5013594;27;51856;-44
2021/06/28 03:00:33;;;;;;;;;0.00;0.00;;;;;25.11;51.74;100952.66;5013827;28;51025;-45
2021/06/28 03:02:59;;;;;;;;;0.75;0.75;;;;;25.11;51.92;100949.03;5015404;27;51653;-47
2021/06/28 03:05:25;;;;;;;;;1.25;1.25;;;;;25.10;51.60;100937.13;5017654;28;51154;-44
2021/06/28 03:07:51;;;;;;;;;0.25;0.25;;;;;25.11;51.63;100921.31;5017278;28;51949;-44
2021/06/28 03:10:16;;;;;;;;;0.75;0.50;;;;;25.09;51.57;100924.34;5013466;28;51214;-44
2021/06/28 03:12:42;;;;;;;;;2.75;1.75;;;;;25.08;51.25;100928.22;5013234;28;50964;-43
2021/06/28 03:15:12;;;;;;;;;1.00;1.00;;;;;25.08;51.50;100931.00;5013422;28;50900;-44
2021/06/28 03:17:38;;;;;;;;;0.00;0.00;;;;;25.06;51.69;100919.31;5013191;28;51082;-44
2021/06/28 03:20:06;;;;;;;;;0.00;0.00;;;;;25.06;51.57;100911.00;5016851;28;51055;-44
2021/06/28 03:22:31;;;;;;;;;0.50;0.50;;;;;25.06;51.41;100913.78;5008594;28;51073;-44
2021/06/28 03:24:57;;;;;;;;;1.00;1.00;;;;;25.06;51.63;100901.84;5013565;28;51274;-44
2021/06/28 03:27:22;;;;;;;;;0.75;0.75;;;;;25.04;51.43;100899.34;5039646;27;51872;-44
2021/06/28 03:29:48;;;;;;;;;1.00;0.75;;;;;25.06;51.14;100879.69;5028953;27;50898;-47
2021/06/28 03:32:13;;;;;;;;;1.25;1.25;;;;;25.04;51.52;100868.84;5013746;28;51070;-47
2021/06/28 03:34:39;;;;;;;;;1.00;1.00;;;;;25.02;51.54;100880.19;5016004;28;50929;-43
2021/06/28 03:37:05;;;;;;;;;1.00;0.25;;;;;25.03;51.54;100892.13;5017258;28;51048;-44
2021/06/28 03:39:31;;;;;;;;;0.00;0.00;;;;;25.02;51.61;100894.06;5013122;28;51323;-43
2021/06/28 03:41:57;;;;;;;;;1.00;1.00;;;;;25.02;51.66;100888.50;5014840;28;51036;-46
2021/06/28 03:44:22;;;;;;;;;0.00;0.00;;;;;25.02;50.97;100884.91;5014911;27;50997;-43
2021/06/28 03:46:47;;;;;;;;;0.00;0.00;;;;;25.02;51.57;100887.66;5013510;28;51945;-47
2021/06/28 03:49:13;;;;;;;;;0.00;0.00;;;;;25.02;51.30;100894.06;5013476;27;51013;-43
2021/06/28 03:51:38;;;;;;;;;0.75;0.75;;;;;25.02;51.54;100893.22;5016600;28;51160;-44
2021/06/28 03:54:04;;;;;;;;;2.50;1.00;;;;;25.03;51.41;100890.19;5014154;27;50906;-44
2021/06/28 03:56:29;;;;;;;;;1.00;1.00;;;;;25.01;51.47;100885.94;5012762;28;51846;-44
2021/06/28 03:58:55;;;;;;;;;1.00;1.00;;;;;25.01;51.06;100897.91;5012897;28;51211;-43
2021/06/28 04:01:20;;;;;;;;;0.25;0.25;;;;;25.01;51.35;100905.31;5016378;28;51251;-43
2021/06/28 04:03:45;;;;;;;;;0.00;0.00;;;;;25.01;51.38;100899.78;5014425;28;50994;-44
2021/06/28 04:06:11;;;;;;;;;0.00;0.00;;;;;25.01;51.18;100899.78;5015049;28;51881;-42
2021/06/28 04:08:38;;;;;;;;;1.00;1.00;;;;;25.00;51.32;100907.25;5014860;28;51120;-43
2021/06/28 04:11:05;;;;;;;;;1.00;1.00;;;;;25.00;51.50;100900.88;5012179;28;51047;-44
2021/06/28 04:13:31;;;;;;;;;1.00;1.00;;;;;25.00;51.33;100901.72;5012848;28;51524;-43
2021/06/28 04:15:56;;;;;;;;;2.25;1.00;;;;;25.00;50.76;100907.25;5015676;28;51775;-44
2021/06/28 04:18:22;;;;;;;;;1.00;1.00;;;;;25.00;51.36;100909.19;5015967;27;51222;-44
2021/06/28 04:20:48;;;;;;;;;1.50;1.00;;;;;25.00;51.25;100900.88;5016843;27;51352;-47
2021/06/28 04:23:13;;;;;;;;;1.00;1.00;;;;;24.99;50.96;100911.13;5020361;28;51173;-44
2021/06/28 04:25:39;;;;;;;;;0.00;0.00;;;;;24.98;51.17;100901.13;5032742;28;52853;-44
2021/06/28 04:28:05;;;;;;;;;2.00;2.00;;;;;24.98;51.09;100892.81;5053653;27;51566;-43
2021/06/28 04:30:30;;;;;;;;;0.25;0.00;;;;;24.99;51.04;100905.59;5027707;28;50882;-44
2021/06/28 04:32:56;;;;;;;;;2.50;2.00;;;;;24.98;51.08;100903.91;5023422;28;50948;-46
2021/06/28 04:35:26;;;;;;;;;0.75;0.75;;;;;24.98;51.19;100908.63;5015172;28;50943;-44
2021/06/28 04:37:55;;;;;;;;;2.00;0.00;;;;;24.98;50.78;100911.38;5017166;28;51214;-46
2021/06/28 04:40:23;;;;;;;;;1.00;1.00;;;;;24.97;51.22;100905.00;5018306;28;51177;-44
2021/06/28 04:42:50;;;;;;;;;1.00;1.00;;;;;24.98;51.01;100925.25;5015143;28;51039;-43
2021/06/28 04:45:17;;;;;;;;;0.50;0.50;;;;;24.98;50.99;100922.47;5015388;27;51797;-46
2021/06/28 04:47:43;;;;;;;;;1.75;1.00;;;;;24.97;51.05;100918.84;5013333;27;51321;-44
2021/06/28 04:50:10;;;;;;;;;1.00;0.25;;;;;24.97;51.23;100929.09;5015218;28;51059;-44
2021/06/28 04:52:37;;;;;;;;;1.00;1.00;;;;;24.96;51.02;100931.03;5015404;28;50879;-45
2021/06/28 04:55:05;;;;;;;;;1.75;1.00;;;;;24.96;50.79;100942.13;5023481;28;52789;-45
2021/06/28 04:57:31;;;;;;;;;1.00;1.00;;;;;24.95;51.20;100945.16;5016336;28;51393;-43
2021/06/28 04:59:56;;;;;;;;;0.50;0.25;;;;;24.96;51.10;100944.06;5021562;28;51195;-47
2021/06/28 05:02:22;;;;;;;;;1.00;1.00;;;;;24.95;50.97;100951.53;5024062;28;51349;-46
2021/06/28 05:04:47;;;;;;;;;2.00;2.00;;;;;24.95;50.86;100950.69;5015896;27;51288;-46
2021/06/28 05:07:14;;;;;;;;;1.00;1.00;;;;;24.95;51.05;100945.16;5015807;28;51111;-43
2021/06/28 05:09:40;;;;;;;;;3.75;2.00;;;;;24.94;50.82;100951.78;5018250;28;50959;-43
2021/06/28 05:12:06;;;;;;;;;1.00;1.00;;;;;24.93;51.00;100944.56;5017336;28;50922;-43
2021/06/28 05:14:31;;;;;;;;;1.00;1.00;;;;;24.93;51.10;100953.72;5014397;28;50987;-44
2021/06/28 05:16:57;;;;;;;;;1.00;1.00;;;;;24.93;50.98;100966.72;5014626;27;51115;-43
2021/06/28 05:19:22;;;;;;;;;0.25;0.25;;;;;24.91;51.02;100967.00;5015095;27;50850;-43
2021/06/28 05:21:47;;;;;;;;;1.00;1.00;;;;;24.91;51.10;100955.91;5018470;28;50904;-44
2021/06/28 05:24:13;;;;;;;;;2.00;2.00;;;;;24.92;50.94;100952.03;5017944;27;50897;-45
2021/06/28 05:26:38;;;;;;;;;2.50;2.00;;;;;24.90;50.80;100948.66;5033581;27;51031;-53
2021/06/28 05:29:04;;;;;;;;;2.00;1.50;;;;;24.90;50.98;100964.44;5047274;27;51521;-50
2021/06/28 05:31:29;;;;;;;;;3.00;2.25;;;;;24.89;51.10;100955.28;5016860;28;51078;-49
2021/06/28 05:33:54;;;;;;;;;3.00;1.50;;;;;24.87;51.17;100965.78;5030168;28;50669;-49
2021/06/28 05:36:21;;;;;;;;;1.50;1.00;;;;;24.87;50.90;100970.50;5024359;28;51016;-50
2021/06/28 05:38:47;;;;;;;;;5.00;2.50;;;;;24.86;50.98;100972.41;5017684;28;51050;-50
2021/06/28 05:41:14;;;;;;;;;1.75;1.00;;;;;24.85;50.91;100967.13;5020428;27;51344;-50
2021/06/28 05:43:39;;;;;;;;;2.25;2.25;;;;;24.83;50.85;100958.22;5017526;28;51872;-50
2021/06/28 05:46:05;;;;;;;;;3.00;1.75;;;;;24.82;50.77;100945.47;5030659;27;51004;-52
2021/06/28 05:48:30;;;;;;;;;3.25;2.00;;;;;24.81;51.06;100938.25;5017283;28;51055;-49
2021/06/28 05:50:55;;;;;;;;;1.00;1.00;;;;;24.80;50.98;100920.75;5017189;28;51150;-49
2021/06/28 05:53:21;;;;;;;;;3.00;2.00;;;;;24.79;51.30;100926.56;5014370;28;51004;-47
2021/06/28 05:55:47;;;;;;;;;2.00;2.00;;;;;24.77;51.03;100933.19;5014759;28;50838;-48
2021/06/28 05:58:15;;;;;;;;;1.00;1.00;;;;;24.79;51.19;100932.09;5018245;28;51244;-46
2021/06/28 06:00:40;;;;;;;;;2.00;2.00;;;;;24.77;51.05;100924.03;5017628;27;51154;-48
2021/06/28 06:03:06;;;;;;;;;2.00;2.00;;;;;24.76;51.18;100930.66;5012643;28;53756;-46
2021/06/28 06:05:31;;;;;;;;;1.25;1.25;;;;;24.75;51.04;100920.69;5014339;28;51196;-46
2021/06/28 06:07:57;;;;;;;;;3.00;2.00;;;;;24.75;51.14;100915.13;5014469;27;51230;-45
2021/06/28 06:10:23;;;;;;;;;3.00;2.00;;;;;24.75;50.94;100915.13;5014123;28;51272;-48
2021/06/28 06:12:48;;;;;;;;;2.00;2.00;;;;;24.73;51.17;100934.78;5015388;28;51871;-50
2021/06/28 06:15:14;;;;;;;;;2.00;2.00;;;;;24.73;51.25;100948.63;5018799;28;51051;-51
2021/06/28 06:17:40;;;;;;;;;3.00;3.00;;;;;24.73;51.37;100942.25;5017697;28;51247;-49
2021/06/28 06:20:07;;;;;;;;;2.00;2.00;;;;;24.73;50.82;100947.78;5031124;28;50569;-49
2021/06/28 06:22:32;;;;;;;;;2.00;2.00;;;;;24.71;51.15;100950.81;5016495;28;52225;-48
2021/06/28 06:24:58;;;;;;;;;2.00;2.00;;;;;24.71;50.99;100963.84;5011963;27;50946;-47
2021/06/28 06:27:23;;;;;;;;;2.00;2.00;;;;;24.70;51.10;100970.47;5014158;27;51262;-50
2021/06/28 06:29:48;;;;;;;;;2.25;2.00;;;;;24.69;51.39;100975.13;5017997;28;50820;-49
2021/06/28 06:32:14;;;;;;;;;3.25;2.00;;;;;24.68;50.93;101003.09;5015812;27;51137;-48
2021/06/28 06:34:39;;;;;;;;;2.00;2.00;;;;;24.67;51.20;101002.25;5014373;27;51088;-47
2021/06/28 06:37:05;;;;;;;;;3.00;3.00;;;;;24.67;51.17;100985.63;5013612;28;51019;-47
2021/06/28 06:39:31;;;;;;;;;2.00;2.00;;;;;24.67;51.31;100982.84;5023306;28;51134;-45
2021/06/28 06:41:57;;;;;;;;;2.75;2.75;;;;;24.66;50.97;100983.94;5027729;27;51500;-47
2021/06/28 06:44:23;;;;;;;;;2.00;2.00;;;;;24.65;50.79;100985.03;5014589;28;51124;-47
2021/06/28 06:46:48;;;;;;;;;4.25;3.00;;;;;24.66;51.10;100997.78;5017164;28;51007;-54
2021/06/28 06:49:14;;;;;;;;;3.00;3.00;;;;;24.66;50.95;100997.78;5017753;27;50958;-52
2021/06/28 06:51:39;;;;;;;;;4.75;2.00;;;;;24.64;50.89;100991.66;5013690;27;52036;-52
2021/06/28 06:54:05;;;;;;;;;2.75;2.75;;;;;24.63;50.85;100984.44;5028997;27;51021;-52
2021/06/28 06:56:31;;;;;;;;;4.50;3.75;;;;;24.62;50.90;100979.16;5028916;28;51073;-52
2021/06/28 06:58:56;;;;;;;;;5.00;2.75;;;;;24.61;50.82;100994.09;5013238;28;51203;-50
2021/06/28 07:01:22;;;;;;;;;3.50;3.50;;;;;24.59;50.77;100999.84;5012958;28;51882;-47
2021/06/28 07:03:47;;;;;;;;;1.00;1.00;;;;;24.57;50.97;100999.28;5014063;28;51050;-47
2021/06/28 07:06:13;;;;;;;;;4.00;1.50;;;;;24.56;50.93;100996.75;5016972;28;50837;-49
2021/06/28 07:08:39;;;;;;;;;3.75;2.00;;;;;24.56;50.96;100994.81;5061248;27;51433;-52
2021/06/28 07:11:06;;;;;;;;;2.00;2.00;;;;;24.55;50.75;100984.84;5022792;27;51657;-50
2021/06/28 07:13:33;;;;;;;;;1.00;1.00;;;;;24.54;51.06;100987.84;5009260;28;51004;-53
2021/06/28 07:15:58;;;;;;;;;3.00;3.00;;;;;24.54;50.96;101001.69;5011296;27;51106;-53
2021/06/28 07:18:24;;;;;;;;;3.00;3.00;;;;;24.53;50.95;100998.09;5005380;28;50851;-51
2021/06/28 07:20:50;;;;;;;;;3.50;2.00;;;;;24.55;50.88;100989.53;5010678;28;51035;-54
2021/06/28 07:23:15;;;;;;;;;3.50;1.75;;;;;24.57;50.69;100993.72;5009339;28;50906;-50
2021/06/28 07:25:41;;;;;;;;;3.00;2.00;;;;;24.61;50.91;101003.25;5004435;28;51184;-52
2021/06/28 07:28:09;;;;;;;;;1.00;1.00;;;;;24.66;50.68;101000.56;5034070;27;51315;-49
2021/06/28 07:30:34;;;;;;;;;2.75;2.50;;;;;24.71;50.76;101005.38;5012773;28;51131;-50
2021/06/28 07:32:59;;;;;;;;;3.00;3.00;;;;;24.77;50.70;100996.91;5012074;28;52335;-51
2021/06/28 07:35:25;;;;;;;;;3.50;3.50;;;;;24.83;50.76;101008.09;5012973;28;51228;-48
2021/06/28 07:37:51;;;;;;;;;5.50;3.75;;;;;24.90;50.72;101004.06;5016893;28;51393;-53
2021/06/28 07:40:19;;;;;;;;;3.00;3.00;;;;;24.95;50.87;101008.88;5016063;28;51748;-48
2021/06/28 07:42:45;;;;;;;;;3.50;3.00;;;;;24.99;50.54;101001.75;5015224;28;51108;-50
2021/06/28 07:45:11;;;;;;;;;5.00;3.00;;;;;25.05;50.56;101006.34;5016382;27;51172;-48
2021/06/28 07:47:36;;;;;;;;;3.25;3.25;;;;;25.11;50.56;101010.88;5020323;28;50897;-49
2021/06/28 07:50:04;;;;;;;;;3.50;2.50;;;;;25.16;50.52;101016.50;5024926;28;50954;-49
2021/06/28 07:52:30;;;;;;;;;4.50;2.75;;;;;25.20;50.15;101017.69;5017894;28;51281;-50
2021/06/28 07:54:56;;;;;;;;;2.00;2.00;;;;;25.24;50.13;101027.22;5019463;27;51170;-51
2021/06/28 07:57:21;;;;;;;;;2.00;2.00;;;;;25.26;50.12;101016.69;5016734;28;51059;-47
2021/06/28 07:59:47;;;;;;;;;5.00;4.00;;;;;25.29;49.75;101013.41;5015502;27;51039;-49
2021/06/28 08:02:12;;;;;;;;;25.50;19.75;;;;;25.33;49.58;101016.56;5015680;28;51074;-51
2021/06/28 08:04:38;;;;;;;;;17.00;15.50;;;;;25.36;49.30;101013.25;5015829;28;51103;-51
2021/06/28 08:07:03;;;;;;;;;18.00;14.75;;;;;25.42;49.35;101014.19;5017579;27;50989;-49
2021/06/28 08:09:29;;;;;;;;;12.00;12.00;;;;;25.45;49.35;101011.75;5018181;28;52069;-50
2021/06/28 08:11:57;;;;;;;;;11.50;8.00;;;;;25.49;49.01;101012.94;5019711;28;50984;-50
2021/06/28 08:14:23;;;;;;;;;9.00;6.50;;;;;25.51;48.78;101012.66;5017003;28;51183;-48
2021/06/28 08:16:49;;;;;;;;;9.25;6.25;;;;;25.51;48.65;101009.91;5014915;28;51111;-48
2021/06/28 08:19:14;;;;;;;;;8.25;6.75;;;;;25.54;48.76;101020.50;5015318;28;52329;-49
2021/06/28 08:21:40;;;;;;;;;6.25;5.00;;;;;25.55;48.39;101005.53;5015421;28;51013;-48
2021/06/28 08:24:07;;;;;;;;;7.75;6.00;;;;;25.54;48.79;101013.03;5017402;28;51110;-51
2021/06/28 08:26:34;;;;;;;;;6.50;6.25;;;;;25.53;48.52;101016.03;5019539;27;51478;-51
2021/06/28 08:29:04;;;;;;;;;4.00;4.00;;;;;25.53;48.68;101005.81;5041966;27;51119;-51
2021/06/28 08:31:31;;;;;;;;;5.25;4.00;;;;;25.55;48.49;101000.00;5015500;28;51468;-46
2021/06/28 08:33:57;;;;;;;;;4.50;4.50;;;;;25.55;48.21;101002.78;5015133;28;51035;-51
2021/06/28 08:36:22;;;;;;;;;4.50;3.00;;;;;25.57;48.45;101006.13;5016405;28;51093;-50
2021/06/28 08:38:48;;;;;;;;;4.00;1.50;;;;;25.57;48.06;101000.56;5016976;28;51786;-52
2021/06/28 08:41:18;;;;;;;;;3.75;2.50;;;;;25.57;47.94;101008.91;5018480;28;50952;-51
2021/06/28 08:43:46;;;;;;;;;2.75;2.50;;;;;25.59;47.89;101009.47;5016421;28;51082;-50
2021/06/28 08:46:16;;;;;;;;;1.50;1.50;;;;;25.57;47.77;101012.50;5015848;27;50987;-50
2021/06/28 08:48:43;;;;;;;;;3.50;2.50;;;;;25.56;47.89;101005.28;5017030;27;52473;-52
2021/06/28 08:51:11;;;;;;;;;2.50;2.50;;;;;25.55;47.86;101006.38;5028385;28;51320;-49
2021/06/28 08:53:37;;;;;;;;;1.25;1.25;;;;;25.54;47.88;101003.88;5037194;28;50979;-50
2021/06/28 08:56:07;;;;;;;;;2.75;2.50;;;;;25.52;47.84;101006.88;5016704;28;51276;-47
2021/06/28 08:58:37;;;;;;;;;3.25;3.00;;;;;25.53;47.94;101013.25;5033111;27;52617;-47
2021/06/28 09:01:03;;;;;;;;;3.00;3.00;;;;;25.52;47.77;101008.81;5014242;28;51269;-47
2021/06/28 09:03:28;;;;;;;;;2.00;2.00;;;;;25.51;48.21;101007.97;5015200;28;51242;-50
2021/06/28 09:06:00;;;;;;;;;5.25;4.00;;;;;25.49;48.24;101007.38;5018169;28;51405;-50
2021/06/28 09:08:26;;;;;;;;;1.00;1.00;;;;;25.47;48.14;101014.28;5021022;27;51914;-49
2021/06/28 09:10:51;;;;;;;;;4.00;2.50;;;;;25.45;48.04;101008.16;5014227;27;51056;-48
2021/06/28 09:13:17;;;;;;;;;2.00;2.00;;;;;25.44;48.28;101003.69;5014551;28;51116;-50
2021/06/28 09:15:48;;;;;;;;;4.00;3.75;;;;;25.44;47.78;101010.09;5016091;28;50972;-50
2021/06/28 09:18:19;;;;;;;;;4.75;3.00;;;;;25.43;48.01;101015.84;5014073;28;51024;-47
2021/06/28 09:20:45;;;;;;;;;2.00;2.00;;;;;25.41;48.22;101020.81;5014488;28;51431;-51
2021/06/28 09:23:16;;;;;;;;;3.00;3.00;;;;;25.41;48.30;101029.13;5014786;27;51233;-49
2021/06/28 09:25:41;;;;;;;;;5.25;4.00;;;;;25.40;48.49;101031.06;5015440;27;51024;-49
2021/06/28 09:28:07;;;;;;;;;4.00;2.25;;;;;25.38;47.96;101030.50;5043634;27;50964;-47
2021/06/28 09:30:39;;;;;;;;;4.50;2.75;;;;;25.37;48.44;101026.03;5019145;28;51012;-51
2021/06/28 09:33:05;;;;;;;;;2.00;2.00;;;;;25.38;48.29;101024.94;5015212;27;51093;-49
2021/06/28 09:35:33;;;;;;;;;4.00;2.00;;;;;25.37;47.97;101023.25;5014403;28;50870;-50
2021/06/28 09:38:29;;;;;;;;;4.00;2.25;;;;;25.36;48.30;101023.53;5031004;28;54080;-47
2021/06/28 09:40:54;;;;;;;;;3.50;3.25;;;;;25.35;47.72;101021.84;5014839;28;51090;-47
2021/06/28 09:43:26;;;;;;;;;3.75;3.00;;;;;25.32;48.07;101029.56;5015126;27;51012;-49
2021/06/28 09:45:55;;;;;;;;;1.50;1.50;;;;;25.32;47.84;101043.44;5017150;27;51215;-48
2021/06/28 09:48:26;;;;;;;;;2.00;2.00;;;;;25.31;47.65;101040.88;5013756;28;51782;-49
2021/06/28 09:51:20;;;;;;;;;1.75;1.75;;;;;25.30;47.42;101045.59;5015052;28;51232;-50
2021/06/28 09:54:06;;;;;;;;;2.00;2.00;;;;;25.31;47.26;101036.19;5018449;28;51032;-46
2021/06/28 09:56:40;;;;;;;;;3.00;3.00;;;;;25.33;47.16;101044.28;5026320;28;50556;-47
2021/06/28 09:59:31;;;;;;;;;2.00;2.00;;;;;25.36;47.34;101042.94;5016999;28;51154;-49
2021/06/28 10:02:10;;;;;;;;;4.00;2.25;;;;;25.36;47.11;101038.22;5023986;27;51265;-60
2021/06/28 10:04:43;;;;;;;;;3.00;1.50;;;;;25.35;47.38;101044.88;5014124;27;51026;-56
2021/06/28 10:07:39;;;;;;;;;2.00;2.00;;;;;25.35;47.34;101047.63;5013956;28;51162;-51
2021/06/28 10:10:32;;;;;;;;;2.50;2.50;;;;;25.36;47.37;101045.69;5015856;27;52078;-52
2021/06/28 10:12:57;;;;;;;;;3.00;3.00;;;;;25.36;47.26;101048.47;5013756;28;50941;-54
2021/06/28 10:15:25;;;;;;;;;3.00;3.00;;;;;25.36;47.22;101045.69;5016455;28;51049;-52
2021/06/28 10:17:51;;;;;;;;;2.00;2.00;;;;;25.36;47.39;101042.94;5014418;28;51340;-46
2021/06/28 10:20:20;;;;;;;;;3.50;2.25;;;;;25.36;47.06;101038.22;5013799;28;51027;-51
2021/06/28 10:22:47;;;;;;;;;2.25;1.75;;;;;25.39;47.07;101050.75;5014852;27;51353;-46
2021/06/28 10:25:15;;;;;;;;;2.75;1.75;;;;;25.39;47.01;101046.03;5018315;28;50926;-45
2021/06/28 10:27:41;;;;;;;;;2.75;2.75;;;;;25.40;46.70;101055.19;5044476;27;51240;-45
2021/06/28 10:30:13;;;;;;;;;5.25;3.75;;;;;25.40;46.94;101044.09;5022337;28;52180;-48
2021/06/28 10:32:40;;;;;;;;;3.75;2.25;;;;;25.41;46.92;101048.56;5016699;28;51110;-47
2021/06/28 10:35:09;;;;;;;;;3.50;3.50;;;;;25.41;47.23;101049.38;5013641;28;51042;-52
2021/06/28 10:37:43;;;;;;;;;4.00;4.00;;;;;25.43;47.00;101051.91;5012146;27;51287;-49
2021/06/28 10:40:14;;;;;;;;;3.00;2.75;;;;;25.43;46.51;101041.69;5013353;28;53100;-52
2021/06/28 10:42:45;;;;;;;;;3.50;2.25;;;;;25.44;46.98;101048.06;5013086;28;51087;-53
2021/06/28 10:45:14;;;;;;;;;2.00;2.00;;;;;25.43;46.87;101033.38;5014732;28;51036;-51
2021/06/28 10:48:00;;;;;;;;;2.25;1.75;;;;;25.43;46.90;101029.72;5016727;28;51141;-47
2021/06/28 10:50:51;;;;;;;;;2.00;2.00;;;;;25.42;46.74;101039.13;5030685;28;51679;-57
2021/06/28 10:53:37;;;;;;;;;2.75;2.75;;;;;25.41;47.01;101037.47;5012992;28;51022;-48
2021/06/28 10:56:32;;;;;;;;;3.00;3.00;;;;;25.38;46.92;101032.41;5017847;28;50857;-44
2021/06/28 10:59:01;;;;;;;;;6.25;3.00;;;;;25.38;46.96;101037.97;5010891;28;50864;-57
2021/06/28 11:01:33;;;;;;;;;3.25;2.50;;;;;25.37;47.07;101031.59;5015466;28;50980;-48
2021/06/28 11:04:10;;;;;;;;;4.00;3.75;;;;;25.34;46.90;101023.78;5027572;28;51182;-49
2021/06/28 11:06:38;;;;;;;;;7.25;3.00;;;;;25.33;46.71;101028.47;5011016;27;51118;-47
2021/06/28 11:09:08;;;;;;;;;3.75;2.75;;;;;25.32;46.83;101026.81;5012793;28;51219;-49
2021/06/28 11:11:45;;;;;;;;;3.00;2.00;;;;;25.32;46.95;101024.03;5012624;28;50880;-48
2021/06/28 11:14:20;;;;;;;;;5.00;3.25;;;;;25.35;46.65;101024.63;5013512;28;51115;-51
2021/06/28 11:17:15;;;;;;;;;5.75;2.75;;;;;25.35;46.88;101024.63;5030196;28;51135;-53
2021/06/28 11:19:46;;;;;;;;;4.25;4.00;;;;;25.35;46.44;101019.06;5012430;28;51320;-49
2021/06/28 11:22:33;;;;;;;;;4.50;3.00;;;;;25.36;47.07;101026.28;5012293;28;52841;-48
2021/06/28 11:25:08;;;;;;;;;3.25;3.25;;;;;25.35;46.92;101013.53;5002646;27;51192;-49
2021/06/28 11:27:43;;;;;;;;;3.00;3.00;;;;;25.34;46.70;101021.00;5016302;28;51220;-47